Terminal Aerodrome Forecast
Issued by NWS Tampa Bay Area, FL

Home | Current Version | Previous Version | Text Only | Print | Product List | Glossary On
Versions: 1 2 3 4 5 6 7 8 9 10 11 12 13 14 15 16 17 18 19 20 21 22 23 24 25 26
000
FTUS42 KTBW 231732
TAFTPA
TAF
KTPA 231732Z 2318/2418 21017G24KT P6SM FEW020 SCT035 BKN050
     FM232100 21016G25KT P6SM SCT050 SCT120 BKN200
     FM240100 22012KT P6SM SCT025 SCT050 BKN200
     FM240900 20014G23KT P6SM VCTS SCT030CB BKN050
     FM241500 21018G26KT 5SM -RA VCTS SCT030CB OVC050=

USA.gov is the U.S. government's official web portal to all federal, state and local government web resources and services.